Time;durP1;ratioP1;P1;durP2;ratioP2;P2;SDS_P1;SDS_P2;PMS_P1;PMS_P2;Temp;Humidity;BMP_temperature;BMP_pressure;BME280_temperature;BME280_humidity;BME280_pressure;Samples;Min_cycle;Max_cycle;Signal;HPM_P1;HPM_P2
2023/11/17 00:00:59;;;;;;;4.97;1.80;;;;;;;3.00;100.00;101055.53;6279215;28;20048;-75
2023/11/17 00:04:00;;;;;;;2.63;1.77;;;;;;;2.97;100.00;101052.97;6279276;28;20091;-75
2023/11/17 00:07:03;;;;;;;3.65;1.92;;;;;;;2.94;100.00;101060.81;6270569;28;20045;-75
2023/11/17 00:10:05;;;;;;;3.03;1.75;;;;;;;2.80;100.00;101061.03;6278804;28;20056;-75
2023/11/17 00:13:08;;;;;;;3.65;2.00;;;;;;;2.86;100.00;101058.38;6270684;28;20048;-75
2023/11/17 00:16:09;;;;;;;3.85;1.80;;;;;;;2.82;100.00;101056.69;6278858;28;20052;-75
2023/11/17 00:19:11;;;;;;;3.75;1.83;;;;;;;2.86;100.00;101058.38;6278823;28;20361;-75
2023/11/17 00:22:13;;;;;;;5.95;2.08;;;;;;;2.84;100.00;101067.91;6278327;28;20052;-75
2023/11/17 00:25:15;;;;;;;3.97;2.13;;;;;;;2.84;100.00;101075.69;6278994;28;20056;-75
2023/11/17 00:28:18;;;;;;;3.17;1.98;;;;;;;2.71;100.00;101082.81;6278424;28;20045;-75
2023/11/17 00:31:19;;;;;;;3.47;2.03;;;;;;;2.73;100.00;101073.28;6278729;28;20061;-75
2023/11/17 00:34:21;;;;;;;8.70;2.60;;;;;;;2.65;100.00;101076.88;6269943;28;20049;-75
2023/11/17 00:37:25;;;;;;;4.07;2.65;;;;;;;2.63;100.00;101076.88;6278196;28;20138;-75
2023/11/17 00:40:26;;;;;;;7.35;2.78;;;;;;;2.32;100.00;101084.25;6278253;28;20355;-76
2023/11/17 00:43:29;;;;;;;8.00;2.95;;;;;;;2.16;100.00;101087.94;6278182;28;20060;-75
2023/11/17 00:46:30;;;;;;;4.35;3.00;;;;;;;2.19;100.00;101088.75;6277847;28;20376;-75
2023/11/17 00:49:32;;;;;;;3.97;2.42;;;;;;;2.32;100.00;101086.84;6278146;28;20045;-75
2023/11/17 00:52:35;;;;;;;5.30;2.65;;;;;;;2.28;100.00;101088.63;6278631;28;20055;-75
2023/11/17 00:55:36;;;;;;;4.95;2.53;;;;;;;2.35;100.00;101094.56;6278445;28;20052;-75
2023/11/17 00:58:39;;;;;;;3.70;2.20;;;;;;;2.25;100.00;101099.03;6278919;28;20049;-75
2023/11/17 01:01:41;;;;;;;6.53;3.10;;;;;;;2.12;100.00;101097.47;6278036;28;20064;-75
2023/11/17 01:04:43;;;;;;;8.02;2.67;;;;;;;2.09;100.00;101104.44;6277580;28;20048;-75
2023/11/17 01:07:44;;;;;;;5.88;2.83;;;;;;;2.10;100.00;101108.75;6277474;28;20044;-75
2023/11/17 01:10:46;;;;;;;5.35;3.10;;;;;;;2.25;100.00;101114.59;6277664;28;20449;-75
2023/11/17 01:13:49;;;;;;;6.30;3.03;;;;;;;2.07;100.00;101121.75;6277633;28;20437;-75
2023/11/17 01:16:50;;;;;;;6.95;3.00;;;;;;;2.09;100.00;101115.69;6277300;28;20457;-75
2023/11/17 01:19:52;;;;;;;5.55;2.75;;;;;;;2.13;100.00;101117.34;6277600;28;20059;-75
2023/11/17 01:22:53;;;;;;;5.50;3.15;;;;;;;2.23;100.00;101120.69;6277146;28;20052;-75
2023/11/17 01:25:55;;;;;;;6.78;3.58;;;;;;;2.31;100.00;101131.78;6277437;28;20057;-75
2023/11/17 01:28:57;;;;;;;5.95;3.20;;;;;;;2.44;100.00;101129.91;6277104;28;20056;-75
2023/11/17 01:31:59;;;;;;;6.15;3.58;;;;;;;2.46;100.00;101139.38;6277522;28;20121;-75
2023/11/17 01:35:00;;;;;;;4.72;3.00;;;;;;;2.37;100.00;101143.84;6277188;28;20053;-75
2023/11/17 01:38:02;;;;;;;4.78;2.88;;;;;;;2.39;100.00;101142.09;6276949;28;20056;-75
2023/11/17 01:41:04;;;;;;;6.38;3.13;;;;;;;2.40;100.00;101152.41;6270962;28;20056;-75
2023/11/17 01:44:07;;;;;;;9.40;2.97;;;;;;;2.33;100.00;101152.53;6272511;28;20052;-75
2023/11/17 01:47:08;;;;;;;6.82;3.10;;;;;;;2.25;100.00;101152.63;6268092;28;20049;-75
2023/11/17 01:50:11;;;;;;;4.55;3.15;;;;;;;2.12;100.00;101154.50;6276579;28;20053;-75
2023/11/17 01:53:13;;;;;;;7.30;3.30;;;;;;;2.39;100.00;101160.22;6276735;28;20053;-75
2023/11/17 01:56:16;;;;;;;6.05;3.33;;;;;;;2.40;100.00;101167.13;6268092;28;20041;-75
2023/11/17 01:59:19;;;;;;;6.75;3.17;;;;;;;2.21;100.00;101164.78;6276658;28;20056;-75
2023/11/17 02:02:20;;;;;;;6.13;3.78;;;;;;;2.27;100.00;101164.72;6276225;28;20056;-75
2023/11/17 02:05:24;;;;;;;12.40;3.40;;;;;;;2.29;100.00;101169.88;6270242;28;20049;-75
2023/11/17 02:08:36;;;;;;;8.18;3.95;;;;;;;2.27;100.00;101167.31;6274261;28;20460;-75
2023/11/17 02:11:44;;;;;;;7.15;3.42;;;;;;;2.28;100.00;101181.13;6276421;28;20049;-75
2023/11/17 02:14:49;;;;;;;7.68;4.03;;;;;;;2.28;100.00;101178.53;6274161;28;20045;-75
2023/11/17 02:17:52;;;;;;;9.40;4.10;;;;;;;2.13;100.00;101182.13;6269815;28;20055;-75
2023/11/17 02:20:54;;;;;;;8.38;4.18;;;;;;;2.06;100.00;101196.06;6275958;28;20053;-75
2023/11/17 02:23:59;;;;;;;7.18;3.45;;;;;;;2.19;100.00;101194.19;6275977;28;20059;-76
2023/11/17 02:27:12;;;;;;;6.82;3.88;;;;;;;2.25;100.00;101191.53;6267250;28;20045;-75
2023/11/17 02:30:19;;;;;;;6.28;3.55;;;;;;;2.23;100.00;101186.38;6276013;28;20460;-75
2023/11/17 02:33:21;;;;;;;7.28;4.32;;;;;;;2.17;100.00;101193.34;6275631;28;20464;-75
2023/11/17 02:36:22;;;;;;;9.43;4.15;;;;;;;2.20;100.00;101193.31;6275656;28;20049;-75
2023/11/17 02:39:26;;;;;;;7.85;4.88;;;;;;;2.48;100.00;101199.03;6275692;28;20045;-75
2023/11/17 02:42:28;;;;;;;11.60;4.60;;;;;;;2.61;100.00;101207.50;6275625;28;20060;-75
2023/11/17 02:45:36;;;;;;;8.02;4.53;;;;;;;2.62;100.00;101207.47;6275585;28;20084;-75
2023/11/17 02:48:37;;;;;;;6.88;3.97;;;;;;;2.65;100.00;101206.59;6275408;28;20486;-75
2023/11/17 02:51:43;;;;;;;9.13;4.25;;;;;;;2.36;100.00;101220.75;6275458;28;20044;-75
2023/11/17 02:54:46;;;;;;;7.53;4.03;;;;;;;2.35;100.00;101207.81;6275394;28;20053;-75
2023/11/17 02:57:49;;;;;;;6.28;3.42;;;;;;;2.31;100.00;101216.53;6275875;28;20041;-75
2023/11/17 03:00:51;;;;;;;7.97;3.60;;;;;;;2.33;100.00;101220.81;6275166;28;20357;-75
2023/11/17 03:03:53;;;;;;;9.63;4.45;;;;;;;2.18;100.00;101221.88;6275244;28;20053;-75
2023/11/17 03:06:56;;;;;;;8.25;4.00;;;;;;;2.26;100.00;101222.63;6274838;28;20052;-75
2023/11/17 03:09:58;;;;;;;8.95;4.20;;;;;;;2.13;100.00;101231.41;6275364;28;20171;-75
2023/11/17 03:12:59;;;;;;;7.00;4.15;;;;;;;2.10;100.00;101230.59;6274624;28;20049;-76
2023/11/17 03:16:02;;;;;;;12.30;4.25;;;;;;;2.16;100.00;101238.31;6274836;28;20342;-75
2023/11/17 03:19:09;;;;;;;10.45;4.97;;;;;;;2.22;100.00;101246.84;6274954;28;20049;-75
2023/11/17 03:22:13;;;;;;;6.82;4.50;;;;;;;2.24;100.00;101246.84;6274485;28;20056;-75
2023/11/17 03:25:16;;;;;;;10.25;4.38;;;;;;;2.25;100.00;101256.34;6274814;28;20049;-75
2023/11/17 03:28:19;;;;;;;10.00;4.50;;;;;;;2.35;100.00;101249.31;6279000;28;20056;-75
2023/11/17 03:31:22;;;;;;;12.27;5.32;;;;;;;2.40;100.00;101257.91;6278942;28;20061;-74
2023/11/17 03:34:28;;;;;;;11.60;4.80;;;;;;;2.56;100.00;101254.25;6279382;28;20353;-75
2023/11/17 03:37:30;;;;;;;7.45;4.47;;;;;;;2.62;100.00;101246.41;6279423;28;20045;-75
2023/11/17 03:40:35;;;;;;;7.93;4.78;;;;;;;2.30;100.00;101254.56;6279589;28;20053;-76
2023/11/17 03:43:37;;;;;;;10.52;5.13;;;;;;;2.38;100.00;101254.47;6271041;28;20049;-75
2023/11/17 03:46:40;;;;;;;9.68;5.35;;;;;;;2.52;100.00;101256.03;6254570;28;20080;-75
2023/11/17 03:49:43;;;;;;;12.82;5.95;;;;;;;2.39;100.00;101257.06;6261824;28;20060;-75
2023/11/17 03:52:45;;;;;;;16.25;7.35;;;;;;;2.35;100.00;101251.91;6279270;28;20095;-76
2023/11/17 03:55:46;;;;;;;12.00;6.47;;;;;;;2.46;100.00;101263.03;6279250;28;20049;-75
2023/11/17 03:58:48;;;;;;;12.77;6.43;;;;;;;2.46;100.00;101263.91;6282554;28;20037;-76
2023/11/17 04:01:51;;;;;;;10.00;5.43;;;;;;;2.41;100.00;101257.91;6283954;28;20049;-75
2023/11/17 04:04:53;;;;;;;12.35;5.75;;;;;;;2.36;100.00;101257.06;6286369;28;20063;-75
2023/11/17 04:07:55;;;;;;;10.65;5.78;;;;;;;2.42;100.00;101263.94;6271264;28;20047;-75
2023/11/17 04:10:56;;;;;;;8.10;4.80;;;;;;;2.44;100.00;101265.63;6276517;28;20045;-75
2023/11/17 04:13:58;;;;;;;9.60;5.22;;;;;;;2.43;100.00;101266.53;6278065;28;20106;-75
2023/11/17 04:17:00;;;;;;;9.48;5.03;;;;;;;2.53;100.00;101273.31;6277734;28;20056;-75
2023/11/17 04:20:02;;;;;;;10.68;5.15;;;;;;;2.53;100.00;101288.88;6275441;23;20050;-75
2023/11/17 04:23:05;;;;;;;10.93;5.60;;;;;;;2.64;100.00;101287.91;6257341;28;20045;-75
2023/11/17 04:26:09;;;;;;;11.07;6.07;;;;;;;2.48;100.00;101295.00;6279291;28;20175;-75
2023/11/17 04:29:10;;;;;;;13.32;5.20;;;;;;;2.43;100.00;101299.38;6261126;28;20459;-76
2023/11/17 04:32:13;;;;;;;11.73;5.95;;;;;;;2.59;100.00;101297.47;6294729;28;20048;-75
2023/11/17 04:35:15;;;;;;;9.35;5.03;;;;;;;2.53;100.00;101303.59;6303433;28;20048;-75
2023/11/17 04:38:16;;;;;;;10.15;5.95;;;;;;;2.75;100.00;101312.84;6302466;28;20053;-75
2023/11/17 04:41:19;;;;;;;11.48;5.70;;;;;;;2.52;100.00;101317.44;6303216;28;20044;-75
2023/11/17 04:44:21;;;;;;;10.23;5.38;;;;;;;2.63;100.00;101315.56;6303310;28;20048;-75
2023/11/17 04:47:24;;;;;;;9.82;5.05;;;;;;;2.63;100.00;101312.97;6294302;28;20041;-75
2023/11/17 04:50:26;;;;;;;10.18;4.90;;;;;;;2.67;100.00;101312.06;6259988;28;20045;-75
2023/11/17 04:53:27;;;;;;;7.90;5.05;;;;;;;2.87;100.00;101308.38;6271119;28;20052;-74
2023/11/17 04:56:30;;;;;;;8.88;4.50;;;;;;;2.96;100.00;101308.28;6287505;28;20045;-75
2023/11/17 04:59:31;;;;;;;9.13;4.57;;;;;;;3.01;100.00;101301.28;6293227;28;20170;-75
2023/11/17 05:02:34;;;;;;;9.68;4.82;;;;;;;3.02;100.00;101288.25;6281680;28;20048;-75
2023/11/17 05:05:35;;;;;;;9.20;5.25;;;;;;;3.08;100.00;101292.50;6293824;28;20495;-75
2023/11/17 05:08:37;;;;;;;10.38;5.28;;;;;;;3.14;100.00;101299.38;6288553;28;20067;-75
2023/11/17 05:11:39;;;;;;;9.90;5.00;;;;;;;3.16;100.00;101298.47;6277456;28;20132;-75
2023/11/17 05:14:41;;;;;;;7.22;3.90;;;;;;;3.15;100.00;101309.72;6283003;28;20052;-76
2023/11/17 05:17:44;;;;;;;6.95;4.32;;;;;;;2.96;100.00;101305.69;6294094;28;20041;-75
2023/11/17 05:20:46;;;;;;;6.38;4.40;;;;;;;2.72;100.00;101315.47;6302226;28;20055;-76
2023/11/17 05:23:48;;;;;;;7.57;4.47;;;;;;;2.86;100.00;101320.50;6302453;28;20064;-75
2023/11/17 05:26:49;;;;;;;8.75;4.80;;;;;;;2.90;100.00;101313.53;6276127;28;20052;-75
2023/11/17 05:29:51;;;;;;;9.23;4.38;;;;;;;2.78;100.00;101319.75;6287053;28;20053;-75
2023/11/17 05:32:53;;;;;;;5.97;3.38;;;;;;;2.80;100.00;101324.00;6294354;28;20052;-75
2023/11/17 05:35:55;;;;;;;9.02;3.95;;;;;;;2.87;100.00;101322.22;6293648;28;20048;-76
2023/11/17 05:38:56;;;;;;;8.15;4.47;;;;;;;2.87;100.00;101329.16;6301863;28;20067;-75
2023/11/17 05:41:58;;;;;;;5.50;3.70;;;;;;;2.99;100.00;101332.44;6299830;28;20055;-75
2023/11/17 05:44:59;;;;;;;7.18;3.55;;;;;;;3.18;100.00;101327.88;6287639;28;20052;-75
2023/11/17 05:48:02;;;;;;;11.50;4.68;;;;;;;3.23;100.00;101327.81;6301633;28;20045;-76
2023/11/17 05:51:09;;;;;;;10.73;4.53;;;;;;;3.27;100.00;101327.75;6295415;28;20097;-75
2023/11/17 05:54:10;;;;;;;8.20;4.22;;;;;;;3.23;100.00;101330.41;6293065;28;20055;-76
2023/11/17 05:57:13;;;;;;;8.88;4.60;;;;;;;3.27;100.00;101321.66;6296138;28;20430;-76
2023/11/17 06:00:18;;;;;;;8.02;4.03;;;;;;;3.24;100.00;101327.78;6285489;28;20045;-76
2023/11/17 06:03:21;;;;;;;6.88;4.43;;;;;;;3.22;100.00;101339.06;6293588;28;20076;-75
2023/11/17 06:06:23;;;;;;;11.07;4.25;;;;;;;3.21;100.00;101340.81;6292819;28;20050;-75
2023/11/17 06:09:24;;;;;;;7.40;4.20;;;;;;;3.20;100.00;101346.03;6286151;28;20045;-76
2023/11/17 06:12:26;;;;;;;6.82;4.10;;;;;;;3.13;100.00;101352.16;6287470;28;20049;-75
2023/11/17 06:15:31;;;;;;;10.35;4.25;;;;;;;3.18;100.00;101364.25;6284631;28;20440;-76
2023/11/17 06:18:33;;;;;;;7.10;3.72;;;;;;;3.24;100.00;101361.56;6291414;28;20055;-75
2023/11/17 06:21:35;;;;;;;12.98;4.28;;;;;;;3.24;100.00;101353.75;6300896;28;20437;-75
2023/11/17 06:24:36;;;;;;;11.13;4.68;;;;;;;3.27;100.00;101358.94;6301120;28;20064;-76
2023/11/17 06:27:38;;;;;;;7.20;3.65;;;;;;;3.39;100.00;101370.88;6300826;28;20048;-75
2023/11/17 06:30:40;;;;;;;7.05;3.80;;;;;;;3.40;100.00;101375.19;6300818;28;20051;-76
2023/11/17 06:33:42;;;;;;;6.18;3.78;;;;;;;3.39;100.00;101373.47;6300490;28;20051;-75
2023/11/17 06:36:44;;;;;;;10.63;5.40;;;;;;;3.42;100.00;101376.03;6300407;28;20333;-76
2023/11/17 06:39:45;;;;;;;6.47;3.67;;;;;;;3.42;100.00;101372.56;6300679;28;20087;-75
2023/11/17 06:42:47;;;;;;;6.80;3.85;;;;;;;3.44;100.00;101378.59;6287993;28;20441;-75
2023/11/17 06:45:52;;;;;;;9.02;4.50;;;;;;;3.52;100.00;101380.22;6288026;28;20437;-75
2023/11/17 06:48:54;;;;;;;9.32;4.30;;;;;;;3.53;100.00;101381.91;6287290;28;20353;-75
2023/11/17 06:51:56;;;;;;;7.47;3.60;;;;;;;3.56;100.00;101376.69;6286803;28;20045;-75
2023/11/17 06:54:58;;;;;;;9.63;3.53;;;;;;;3.64;100.00;101376.59;6288036;28;20053;-75
2023/11/17 06:58:00;;;;;;;5.60;3.38;;;;;;;3.67;100.00;101383.47;6300476;28;20051;-75
2023/11/17 07:01:01;;;;;;;7.60;3.97;;;;;;;3.59;100.00;101382.72;6292370;28;20056;-74
2023/11/17 07:04:05;;;;;;;7.40;3.75;;;;;;;3.66;100.00;101381.75;6286632;28;20055;-75
2023/11/17 07:07:07;;;;;;;5.97;3.65;;;;;;;3.68;100.00;101385.19;6299988;28;20044;-75
2023/11/17 07:10:14;;;;;;;10.90;3.45;;;;;;;3.64;100.00;101389.59;6277893;28;20045;-75
2023/11/17 07:13:15;;;;;;;7.70;3.90;;;;;;;3.64;100.00;101401.72;6280880;28;20174;-75
2023/11/17 07:16:18;;;;;;;10.50;5.28;;;;;;;3.66;100.00;101405.16;6284335;28;20048;-76
2023/11/17 07:19:21;;;;;;;9.18;4.75;;;;;;;3.58;100.00;101410.44;6300007;28;20135;-75
2023/11/17 07:22:22;;;;;;;8.98;4.38;;;;;;;3.63;100.00;101400.84;6295225;28;20053;-75
2023/11/17 07:25:24;;;;;;;11.95;5.43;;;;;;;3.66;100.00;101403.41;6289026;28;20053;-76
2023/11/17 07:28:25;;;;;;;9.57;4.40;;;;;;;3.66;100.00;101400.81;6299095;28;20044;-75
2023/11/17 07:31:27;;;;;;;6.47;4.47;;;;;;;3.74;100.00;101404.16;6280041;28;20049;-75
2023/11/17 07:34:30;;;;;;;12.18;4.13;;;;;;;3.73;100.00;101423.25;6287826;28;20057;-77
2023/11/17 07:37:31;;;;;;;5.55;3.55;;;;;;;3.62;100.00;101413.88;6275428;28;20060;-75
2023/11/17 07:40:33;;;;;;;5.30;3.20;;;;;;;3.74;100.00;101424.09;6274572;28;20056;-76
2023/11/17 07:43:36;;;;;;;5.63;3.42;;;;;;;3.85;100.00;101434.34;6282799;28;20049;-75
2023/11/17 07:46:37;;;;;;;5.72;3.42;;;;;;;3.75;100.00;101437.06;6276626;28;20056;-75
2023/11/17 07:49:41;;;;;;;9.23;3.25;;;;;;;3.92;100.00;101444.63;6287595;28;20052;-75
2023/11/17 07:52:44;;;;;;;6.97;3.55;;;;;;;4.00;100.00;101441.94;6293907;28;20260;-76
2023/11/17 07:55:46;;;;;;;7.72;3.72;;;;;;;4.00;100.00;101442.78;6283402;28;20356;-76
2023/11/17 07:58:48;;;;;;;6.90;3.58;;;;;;;4.07;100.00;101447.00;6282642;28;20047;-76
2023/11/17 08:01:50;;;;;;;6.82;3.67;;;;;;;4.14;100.00;101454.72;6280795;28;20045;-74
2023/11/17 08:04:54;;;;;;;8.10;3.20;;;;;;;4.19;100.00;101453.75;6270026;28;20041;-73
2023/11/17 08:07:56;;;;;;;6.22;3.17;;;;;;;4.19;100.00;101456.38;6285023;28;20044;-73
2023/11/17 08:10:57;;;;;;;11.40;4.07;;;;;;;4.19;100.00;101461.56;6282759;28;20430;-73
2023/11/17 08:13:59;;;;;;;6.07;3.75;;;;;;;4.31;100.00;101461.38;6300740;28;20360;-74
2023/11/17 08:17:01;;;;;;;11.07;3.47;;;;;;;4.30;100.00;101466.59;6287054;28;20049;-74
2023/11/17 08:20:10;;;;;;;8.30;3.20;;;;;;;4.37;100.00;101455.22;6280308;28;20049;-73
2023/11/17 08:23:12;;;;;;;7.90;4.47;;;;;;;4.33;100.00;101456.13;6254678;28;20041;-74
2023/11/17 08:26:15;;;;;;;10.35;3.35;;;;;;;4.28;100.00;101469.22;6287666;28;20052;-73
2023/11/17 08:29:18;;;;;;;4.07;2.85;;;;;;;4.27;100.00;101466.63;6287063;28;20055;-72
2023/11/17 08:32:19;;;;;;;8.75;3.78;;;;;;;4.27;100.00;101467.50;6291379;28;20135;-74
2023/11/17 08:35:22;;;;;;;5.47;3.30;;;;;;;4.24;100.00;101477.97;6303692;28;20060;-74
2023/11/17 08:38:25;;;;;;;6.65;3.63;;;;;;;4.18;100.00;101480.66;6284448;28;20515;-74
2023/11/17 08:41:26;;;;;;;7.07;3.53;;;;;;;4.10;100.00;101474.72;6292844;28;20452;-73
2023/11/17 08:44:28;;;;;;;7.28;3.50;;;;;;;4.06;100.00;101478.22;6293292;28;20512;-74
2023/11/17 08:47:29;;;;;;;11.52;4.72;;;;;;;4.10;100.00;101479.91;6294638;28;20048;-74
2023/11/17 08:50:32;;;;;;;7.68;3.83;;;;;;;4.10;100.00;101482.50;6282701;28;20051;-74
2023/11/17 08:53:34;;;;;;;9.07;3.90;;;;;;;4.18;100.00;101483.25;6284003;28;20433;-73
2023/11/17 08:56:36;;;;;;;6.43;4.07;;;;;;;4.20;100.00;101483.22;6295092;28;20055;-74
2023/11/17 08:59:38;;;;;;;6.22;3.80;;;;;;;4.26;100.00;101485.72;6302783;28;20433;-73
2023/11/17 09:02:41;;;;;;;8.32;4.07;;;;;;;4.19;100.00;101489.31;6287809;28;20117;-73
2023/11/17 09:05:45;;;;;;;8.20;3.78;;;;;;;4.29;100.00;101483.94;6279377;28;20072;-73
2023/11/17 09:08:47;;;;;;;10.63;4.20;;;;;;;4.36;100.00;101489.94;6284044;28;20049;-73
2023/11/17 09:11:48;;;;;;;7.95;4.13;;;;;;;4.38;100.00;101489.91;6293583;28;20053;-73
2023/11/17 09:14:51;;;;;;;6.05;3.47;;;;;;;4.39;100.00;101489.00;6286330;28;20368;-73
2023/11/17 09:17:53;;;;;;;9.32;4.35;;;;;;;4.45;100.00;101495.00;6302650;28;20130;-73
2023/11/17 09:20:57;;;;;;;7.80;4.15;;;;;;;4.51;100.00;101487.06;6302118;28;20456;-72
2023/11/17 09:24:01;;;;;;;7.35;3.67;;;;;;;4.55;100.00;101490.50;6297884;28;20404;-72
2023/11/17 09:27:04;;;;;;;9.52;4.50;;;;;;;4.53;100.00;101495.69;6293732;28;20441;-72
2023/11/17 09:30:07;;;;;;;7.03;3.42;;;;;;;4.67;100.00;101499.81;6301978;28;20129;-72
2023/11/17 09:33:08;;;;;;;10.52;3.90;;;;;;;4.68;100.00;101489.41;6289769;28;20411;-72
2023/11/17 09:36:11;;;;;;;8.50;3.95;;;;;;;4.76;100.00;101491.84;6302050;28;20097;-73
2023/11/17 09:39:13;;;;;;;7.57;3.30;;;;;;;4.83;100.00;101493.47;6302011;28;20052;-72
2023/11/17 09:42:16;;;;;;;7.50;3.95;;;;;;;4.94;100.00;101495.88;6299280;28;20105;-72
2023/11/17 09:45:24;;;;;;;7.47;3.75;;;;;;;4.69;100.00;101501.53;6289513;28;20059;-72
2023/11/17 09:48:28;;;;;;;7.05;3.83;;;;;;;4.74;100.00;101497.09;6301860;28;20131;-72
2023/11/17 09:51:33;;;;;;;5.63;3.22;;;;;;;4.82;100.00;101503.03;6301634;28;20052;-72
2023/11/17 09:54:36;;;;;;;11.27;4.35;;;;;;;4.88;100.00;101499.47;6301670;28;20045;-72
2023/11/17 09:57:39;;;;;;;6.68;3.40;;;;;;;5.05;100.00;101507.84;6301658;28;20118;-72
2023/11/17 10:00:43;;;;;;;7.88;3.35;;;;;;;5.04;100.00;101507.84;6301268;28;20049;-72
2023/11/17 10:03:44;;;;;;;7.80;3.30;;;;;;;5.01;100.00;101507.91;6301351;28;20051;-72
2023/11/17 10:06:50;;;;;;;6.93;3.30;;;;;;;5.06;100.00;101493.91;6300963;28;20052;-72
2023/11/17 10:09:53;;;;;;;7.45;3.40;;;;;;;5.00;100.00;101507.06;6301188;28;20506;-73
2023/11/17 10:12:58;;;;;;;4.43;2.70;;;;;;;4.95;100.00;101498.47;6278846;28;20353;-74
2023/11/17 10:16:02;;;;;;;8.10;3.30;;;;;;;5.05;100.00;101506.97;6276608;28;20251;-74
2023/11/17 10:19:04;;;;;;;6.88;3.08;;;;;;;5.17;100.00;101506.72;6297349;22;20037;-79
2023/11/17 10:22:08;;;;;;;13.23;4.05;;;;;;;5.19;100.00;101504.13;6250832;28;20057;-79
2023/11/17 10:25:10;;;;;;;6.00;3.20;;;;;;;5.27;100.00;101517.88;6274792;28;20056;-79
2023/11/17 10:28:14;;;;;;;6.55;3.38;;;;;;;5.35;100.00;101518.56;6275252;28;20052;-79
2023/11/17 10:31:17;;;;;;;7.55;3.95;;;;;;;5.40;100.00;101513.25;6267104;28;20052;-81
2023/11/17 10:34:21;;;;;;;12.18;3.53;;;;;;;5.46;100.00;101526.19;6275918;28;20045;-77
2023/11/17 10:37:24;;;;;;;6.95;3.25;;;;;;;5.42;100.00;101527.13;6275009;28;20051;-81
2023/11/17 10:40:28;;;;;;;8.85;3.50;;;;;;;5.44;100.00;101526.19;6266642;28;20041;-78
2023/11/17 10:43:29;;;;;;;6.57;3.05;;;;;;;5.49;100.00;101526.94;6250873;28;20509;-80
2023/11/17 10:46:40;;;;;;;10.30;3.47;;;;;;;5.55;100.00;101528.59;6250871;28;20430;-80
2023/11/17 10:49:42;;;;;;;6.63;3.58;;;;;;;5.71;100.00;101521.31;6250958;28;20052;-80
2023/11/17 10:52:44;;;;;;;7.88;4.03;;;;;;;5.55;100.00;101523.41;6250496;28;20053;-80
2023/11/17 10:55:47;;;;;;;6.65;3.25;;;;;;;5.66;100.00;101523.16;6250983;28;20052;-80
2023/11/17 10:58:52;;;;;;;6.93;3.33;;;;;;;5.68;100.00;101526.59;6250623;28;20136;-81
2023/11/17 11:01:54;;;;;;;8.00;3.65;;;;;;;5.95;100.00;101519.97;6250689;28;20136;-80
2023/11/17 11:05:02;;;;;;;12.02;3.47;;;;;;;6.09;100.00;101525.75;6250618;28;20049;-80
2023/11/17 11:08:13;;;;;;;5.90;3.23;;;;;;;6.21;100.00;101515.03;6250609;28;20052;-80
2023/11/17 11:11:21;;;;;;;9.38;2.85;;;;;;;6.23;100.00;101518.47;6258343;28;20045;-79
2023/11/17 11:14:23;;;;;;;5.25;2.85;;;;;;;6.26;100.00;101521.00;6275351;28;20049;-78
2023/11/17 11:17:26;;;;;;;5.95;2.53;;;;;;;6.40;100.00;101518.06;6275225;28;20049;-77
2023/11/17 11:20:28;;;;;;;4.05;2.42;;;;;;;6.42;100.00;101518.03;6275055;28;20053;-77
2023/11/17 11:23:32;;;;;;;5.40;2.58;;;;;;;6.47;100.00;101527.47;6272715;28;20061;-78
2023/11/17 11:26:35;;;;;;;6.05;2.50;;;;;;;6.46;100.00;101523.16;6266947;28;20052;-79
2023/11/17 11:29:41;;;;;;;5.63;2.53;;;;;;;6.47;100.00;101526.63;6266527;28;20049;-79
2023/11/17 11:32:45;;;;;;;5.32;3.03;;;;;;;6.37;100.00;101530.34;6273245;28;20052;-80
2023/11/17 11:35:46;;;;;;;4.90;2.80;;;;;;;6.40;100.00;101531.13;6266741;28;20053;-78
2023/11/17 11:38:49;;;;;;;13.77;3.38;;;;;;;6.42;100.00;101539.78;6274564;28;20053;-77
2023/11/17 11:41:51;;;;;;;7.00;3.05;;;;;;;6.52;100.00;101524.75;6274727;28;20048;-80
2023/11/17 11:44:52;;;;;;;9.30;3.65;;;;;;;6.56;100.00;101539.47;6266349;28;20068;-78
2023/11/17 11:48:00;;;;;;;5.85;3.42;;;;;;;6.85;100.00;101536.97;6276693;28;20053;-79
2023/11/17 11:51:02;;;;;;;6.20;3.05;;;;;;;6.97;100.00;101545.41;6279601;28;20502;-79
2023/11/17 11:54:08;;;;;;;4.55;2.20;;;;;;;7.18;100.00;101550.09;6279768;28;20138;-79
2023/11/17 11:57:24;;;;;;;5.30;2.40;;;;;;;7.13;100.00;101546.75;6279773;28;20175;-80
2023/11/17 12:00:26;;;;;;;6.53;3.85;;;;;;;7.16;100.00;101551.00;6279689;28;20072;-79
2023/11/17 12:03:34;;;;;;;5.75;3.10;;;;;;;7.09;100.00;101551.19;6279385;28;20053;-80
2023/11/17 12:06:36;;;;;;;8.85;3.20;;;;;;;7.22;100.00;101549.13;6272605;28;20049;-75
2023/11/17 12:09:43;;;;;;;11.85;4.78;;;;;;;7.23;100.00;101547.34;6277591;28;20068;-78
2023/11/17 12:12:46;;;;;;;7.28;2.03;;;;;;;7.25;100.00;101546.41;6258457;28;20464;-78
2023/11/17 12:15:47;;;;;;;3.42;2.10;;;;;;;7.24;100.00;101549.91;6254269;28;20453;-79
2023/11/17 12:18:50;;;;;;;4.28;2.50;;;;;;;7.26;100.00;101555.94;6254249;28;20057;-78
2023/11/17 12:21:53;;;;;;;5.82;2.53;;;;;;;7.28;100.00;101562.00;6254032;28;20088;-78
2023/11/17 12:25:00;;;;;;;5.18;2.60;;;;;;;7.24;100.00;101559.53;6254311;28;20053;-79
2023/11/17 12:28:02;;;;;;;7.07;2.65;;;;;;;7.26;100.00;101569.03;6254115;28;20085;-80
2023/11/17 12:31:05;;;;;;;4.07;2.13;;;;;;;7.18;100.00;101563.16;6254080;28;20051;-78
2023/11/17 12:34:07;;;;;;;3.15;2.00;;;;;;;7.32;100.00;101571.50;6254532;28;20092;-78
2023/11/17 12:37:10;;;;;;;9.23;2.40;;;;;;;7.35;100.00;101567.94;6276813;28;20196;-78
2023/11/17 12:40:18;;;;;;;4.55;2.08;;;;;;;7.37;100.00;101577.47;6270127;28;20041;-78
2023/11/17 12:43:19;;;;;;;3.70;2.10;;;;;;;7.37;100.00;101581.84;6278430;28;20445;-78
2023/11/17 12:46:21;;;;;;;2.63;1.88;;;;;;;7.41;100.00;101582.63;6278600;28;20053;-78
2023/11/17 12:49:24;;;;;;;4.78;2.10;;;;;;;7.42;100.00;101579.94;6278222;28;20440;-78
2023/11/17 12:52:26;;;;;;;2.17;1.60;;;;;;;7.50;100.00;101578.00;6273248;28;20050;-79
2023/11/17 12:55:29;;;;;;;2.33;1.67;;;;;;;7.53;100.00;101579.66;6275374;28;20109;-79
2023/11/17 12:58:30;;;;;;;4.22;1.95;;;;;;;7.45;100.00;101579.88;6278236;28;20060;-78
2023/11/17 13:01:32;;;;;;;4.90;2.20;;;;;;;7.52;100.00;101584.03;6277507;28;20421;-76
2023/11/17 13:04:36;;;;;;;5.03;2.13;;;;;;;7.52;100.00;101596.25;6274624;28;20051;-77
2023/11/17 13:07:39;;;;;;;2.85;2.13;;;;;;;7.41;100.00;101595.69;6256736;28;20040;-79
2023/11/17 13:10:46;;;;;;;3.08;2.30;;;;;;;7.42;100.00;101586.94;6271293;28;20437;-80
2023/11/17 13:13:47;;;;;;;3.83;2.03;;;;;;;7.44;100.00;101596.44;6268929;28;20658;-81
2023/11/17 13:16:48;;;;;;;3.28;2.05;;;;;;;7.37;100.00;101584.44;6268916;28;20392;-79
2023/11/17 13:19:50;;;;;;;6.55;2.42;;;;;;;7.38;100.00;101591.38;6260931;28;20056;-78
2023/11/17 13:22:55;;;;;;;3.40;2.10;;;;;;;7.28;100.00;101603.84;6252610;28;20057;-81
2023/11/17 13:26:07;;;;;;;7.07;2.15;;;;;;;7.33;100.00;101601.13;6253302;28;20430;-79
2023/11/17 13:29:13;;;;;;;4.63;2.38;;;;;;;7.32;100.00;101604.63;6252453;28;20086;-79
2023/11/17 13:32:14;;;;;;;4.75;2.72;;;;;;;7.29;100.00;101608.16;6252518;28;20045;-78
2023/11/17 13:35:19;;;;;;;3.67;2.33;;;;;;;7.31;100.00;101610.72;6255384;28;20127;-77
2023/11/17 13:38:21;;;;;;;4.80;2.40;;;;;;;7.20;100.00;101611.03;6268506;28;20445;-77
2023/11/17 13:41:26;;;;;;;5.20;2.08;;;;;;;7.19;100.00;101617.16;6276776;28;20045;-79
2023/11/17 13:44:29;;;;;;;3.42;1.88;;;;;;;7.23;100.00;101616.19;6274701;28;20052;-78
2023/11/17 13:47:30;;;;;;;3.88;2.42;;;;;;;7.21;100.00;101620.56;6276816;28;20082;-77
2023/11/17 13:50:34;;;;;;;6.13;1.98;;;;;;;7.22;100.00;101624.03;6270732;28;20052;-78
2023/11/17 13:53:36;;;;;;;5.55;2.72;;;;;;;7.25;100.00;101619.59;6257251;28;20353;-78
2023/11/17 13:56:47;;;;;;;3.38;2.30;;;;;;;7.14;100.00;101626.88;6252354;28;20053;-80
2023/11/17 13:59:49;;;;;;;8.95;2.58;;;;;;;7.13;100.00;101625.16;6251831;28;20057;-77
2023/11/17 14:02:51;;;;;;;6.88;2.70;;;;;;;7.12;100.00;101628.66;6253114;28;20045;-76
2023/11/17 14:05:53;;;;;;;8.05;3.60;;;;;;;7.19;100.00;101632.84;6267797;28;20054;-76
2023/11/17 14:08:56;;;;;;;5.40;2.67;;;;;;;7.13;100.00;101638.22;6256206;28;20467;-77